Time;durP1;ratioP1;P1;durP2;ratioP2;P2;SDS_P1;SDS_P2;PMS_P1;PMS_P2;Temp;Humidity;BMP_temperature;BMP_pressure;BME280_temperature;BME280_humidity;BME280_pressure;Samples;Min_cycle;Max_cycle;Signal;HPM_P1;HPM_P2
2021/08/22 00:00:41;;;;;;;5.55;1.80;;;;;;;;;;5057737;28;20119;-63
2021/08/22 00:03:07;;;;;;;3.78;2.13;;;;;;;;;;5075650;28;20024;-63
2021/08/22 00:05:33;;;;;;;4.30;1.90;;;;;;;;;;5075360;28;20054;-64
2021/08/22 00:07:59;;;;;;;3.17;1.88;;;;;;;;;;5075501;28;20055;-64
2021/08/22 00:10:25;;;;;;;4.32;1.95;;;;;;;;;;5075537;28;20112;-64
2021/08/22 00:12:51;;;;;;;9.73;2.08;;;;;;;;;;5075346;28;20028;-64
2021/08/22 00:15:18;;;;;;;4.65;2.08;;;;;;;;;;5075437;28;20464;-63
2021/08/22 00:17:44;;;;;;;3.50;1.90;;;;;;;;;;5057129;28;20548;-65
2021/08/22 00:20:10;;;;;;;2.53;1.70;;;;;;;;;;5075199;28;20024;-63
2021/08/22 00:22:36;;;;;;;3.95;1.85;;;;;;;;;;5057649;28;20066;-64
2021/08/22 00:25:02;;;;;;;3.65;1.77;;;;;;;;;;5075559;28;20392;-63
2021/08/22 00:27:28;;;;;;;8.98;2.00;;;;;;;;;;5075135;28;20021;-63
2021/08/22 00:29:54;;;;;;;7.80;2.00;;;;;;;;;;5073866;28;20029;-64
2021/08/22 00:32:20;;;;;;;2.65;1.98;;;;;;;;;;5074944;28;20019;-64
2021/08/22 00:34:47;;;;;;;4.55;1.80;;;;;;;;;;5074927;28;20115;-64
2021/08/22 00:37:13;;;;;;;3.10;1.77;;;;;;;;;;5074876;28;20028;-64
2021/08/22 00:39:39;;;;;;;2.63;1.70;;;;;;;;;;5056649;28;20464;-64
2021/08/22 00:42:05;;;;;;;7.53;1.80;;;;;;;;;;5075225;28;20511;-63
2021/08/22 00:44:30;;;;;;;6.72;1.70;;;;;;;;;;5074815;28;20034;-63
2021/08/22 00:46:57;;;;;;;5.60;1.85;;;;;;;;;;5056773;28;20521;-63
2021/08/22 00:49:27;;;;;;;9.27;2.10;;;;;;;;;;5074452;28;20460;-64
2021/08/22 00:51:53;;;;;;;3.95;1.92;;;;;;;;;;5074748;28;20036;-64
2021/08/22 00:54:19;;;;;;;2.45;1.40;;;;;;;;;;5075277;28;20021;-64
2021/08/22 00:56:45;;;;;;;6.93;1.88;;;;;;;;;;5075047;28;20020;-66
2021/08/22 00:59:11;;;;;;;6.85;1.48;;;;;;;;;;5074694;28;20128;-65
2021/08/22 01:01:37;;;;;;;11.68;1.75;;;;;;;;;;5074405;28;20055;-65
2021/08/22 01:04:17;;;;;;;7.13;1.80;;;;;;;;;;5074334;28;20920;-63
2021/08/22 01:07:02;;;;;;;19.88;1.88;;;;;;;;;;5074323;28;20405;-64
2021/08/22 01:09:48;;;;;;;19.50;2.03;;;;;;;;;;5074265;28;20062;-63
2021/08/22 01:12:20;;;;;;;6.53;1.73;;;;;;;;;;5074075;28;20049;-65
2021/08/22 01:14:48;;;;;;;8.77;2.00;;;;;;;;;;5074280;28;20024;-64
2021/08/22 01:17:15;;;;;;;23.95;2.10;;;;;;;;;;5074083;28;20076;-64
2021/08/22 01:19:44;;;;;;;16.98;1.80;;;;;;;;;;5073518;28;20511;-63
2021/08/22 01:22:10;;;;;;;16.17;1.60;;;;;;;;;;5074258;28;20083;-63
2021/08/22 01:24:39;;;;;;;9.48;1.65;;;;;;;;;;5074010;28;20033;-63
2021/08/22 01:27:06;;;;;;;5.75;1.98;;;;;;;;;;5056126;28;20026;-63
2021/08/22 01:29:37;;;;;;;6.03;1.95;;;;;;;;;;5073767;28;20059;-63
2021/08/22 01:32:04;;;;;;;8.57;1.70;;;;;;;;;;5074471;28;20021;-66
2021/08/22 01:34:30;;;;;;;8.38;1.77;;;;;;;;;;5074292;28;20024;-64
2021/08/22 01:36:59;;;;;;;7.80;1.63;;;;;;;;;;5074000;28;20100;-64
2021/08/22 01:39:26;;;;;;;10.13;1.88;;;;;;;;;;5056233;28;20468;-64
2021/08/22 01:41:52;;;;;;;5.25;1.50;;;;;;;;;;5073484;28;20031;-64
2021/08/22 01:44:18;;;;;;;6.50;1.75;;;;;;;;;;5073664;28;20429;-64
2021/08/22 01:46:45;;;;;;;8.88;1.70;;;;;;;;;;5073636;28;20016;-64
2021/08/22 01:49:11;;;;;;;14.63;2.05;;;;;;;;;;5073510;28;20032;-64
2021/08/22 01:51:38;;;;;;;4.57;1.60;;;;;;;;;;5073889;28;20067;-63
2021/08/22 01:54:08;;;;;;;6.75;1.40;;;;;;;;;;5073665;28;20439;-63
2021/08/22 01:56:35;;;;;;;8.00;1.67;;;;;;;;;;5073473;28;20055;-64
2021/08/22 01:59:02;;;;;;;4.03;1.40;;;;;;;;;;5073181;28;20044;-63
2021/08/22 02:01:28;;;;;;;9.15;1.70;;;;;;;;;;5073170;28;20042;-64
2021/08/22 02:04:12;;;;;;;2.85;1.52;;;;;;;;;;5073216;28;20028;-63
2021/08/22 02:06:46;;;;;;;7.60;1.35;;;;;;;;;;5055379;28;20033;-63
2021/08/22 02:09:13;;;;;;;5.78;1.30;;;;;;;;;;5073255;28;20048;-65
2021/08/22 02:11:43;;;;;;;4.20;1.30;;;;;;;;;;5073634;28;20032;-64
2021/08/22 02:14:10;;;;;;;6.68;1.67;;;;;;;;;;5073337;28;20025;-63
2021/08/22 02:16:37;;;;;;;6.78;1.42;;;;;;;;;;5072861;28;20094;-64
2021/08/22 02:19:03;;;;;;;3.67;1.52;;;;;;;;;;5073014;28;20044;-64
2021/08/22 02:21:31;;;;;;;3.72;1.40;;;;;;;;;;5073816;28;20166;-63
2021/08/22 02:23:57;;;;;;;2.42;1.58;;;;;;;;;;5072834;28;20035;-63
2021/08/22 02:26:24;;;;;;;4.32;1.67;;;;;;;;;;5073430;28;20028;-64
2021/08/22 02:28:56;;;;;;;2.25;1.70;;;;;;;;;;5073243;28;20024;-64
2021/08/22 02:31:24;;;;;;;3.78;1.83;;;;;;;;;;5072944;28;20498;-64
2021/08/22 02:33:50;;;;;;;3.08;1.30;;;;;;;;;;5072803;28;20037;-64
2021/08/22 02:36:16;;;;;;;3.20;1.40;;;;;;;;;;5072962;28;20029;-63
2021/08/22 02:38:42;;;;;;;3.90;1.40;;;;;;;;;;5072701;28;20039;-64
2021/08/22 02:41:08;;;;;;;6.80;1.38;;;;;;;;;;5072826;28;20017;-63
2021/08/22 02:43:34;;;;;;;1.67;1.58;;;;;;;;;;5055072;28;20036;-63
2021/08/22 02:46:00;;;;;;;1.98;1.25;;;;;;;;;;5072713;28;20052;-64
2021/08/22 02:48:26;;;;;;;4.25;1.40;;;;;;;;;;5072630;28;20032;-63
2021/08/22 02:50:51;;;;;;;5.97;1.50;;;;;;;;;;5054871;28;20028;-64
2021/08/22 02:53:17;;;;;;;3.42;1.48;;;;;;;;;;5072001;28;20495;-65
2021/08/22 02:55:43;;;;;;;3.50;1.40;;;;;;;;;;5072638;28;20017;-64
2021/08/22 02:58:09;;;;;;;2.55;1.35;;;;;;;;;;5072614;28;20060;-64
2021/08/22 03:00:35;;;;;;;5.00;1.40;;;;;;;;;;5072735;28;20063;-64
2021/08/22 03:03:01;;;;;;;4.88;1.50;;;;;;;;;;5072593;28;20032;-63
2021/08/22 03:05:27;;;;;;;2.80;1.45;;;;;;;;;;5072956;28;20027;-64
2021/08/22 03:07:53;;;;;;;2.35;1.17;;;;;;;;;;5072730;28;20032;-64
2021/08/22 03:10:19;;;;;;;4.50;1.35;;;;;;;;;;5072452;28;20021;-64
2021/08/22 03:12:45;;;;;;;3.78;1.50;;;;;;;;;;5054621;28;20034;-64
2021/08/22 03:15:11;;;;;;;3.10;1.45;;;;;;;;;;5072568;28;20032;-64
2021/08/22 03:17:41;;;;;;;2.53;1.20;;;;;;;;;;5072135;28;20052;-67
2021/08/22 03:20:07;;;;;;;2.55;1.20;;;;;;;;;;5072431;28;20487;-64
2021/08/22 03:22:34;;;;;;;5.10;1.45;;;;;;;;;;5072335;28;20074;-64
2021/08/22 03:25:00;;;;;;;4.82;1.50;;;;;;;;;;5072613;28;20392;-64
2021/08/22 03:27:26;;;;;;;5.70;1.50;;;;;;;;;;5072521;28;20093;-64
2021/08/22 03:29:52;;;;;;;3.58;1.35;;;;;;;;;;5072339;28;20028;-64
2021/08/22 03:32:19;;;;;;;2.60;1.30;;;;;;;;;;5072517;28;20484;-64
2021/08/22 03:34:45;;;;;;;3.13;1.45;;;;;;;;;;5072772;28;20055;-63
2021/08/22 03:37:11;;;;;;;2.40;1.60;;;;;;;;;;5054123;28;20029;-64
2021/08/22 03:39:37;;;;;;;6.55;1.85;;;;;;;;;;5071954;28;20078;-63
2021/08/22 03:42:03;;;;;;;9.45;1.88;;;;;;;;;;5072330;28;20063;-64
2021/08/22 03:44:29;;;;;;;2.63;1.48;;;;;;;;;;5054557;28;20024;-64
2021/08/22 03:46:55;;;;;;;2.42;1.38;;;;;;;;;;5072647;28;20414;-63
2021/08/22 03:49:21;;;;;;;3.35;1.50;;;;;;;;;;5072140;28;20021;-63
2021/08/22 03:51:47;;;;;;;2.80;1.52;;;;;;;;;;5072244;28;20025;-63
2021/08/22 03:54:13;;;;;;;3.50;1.27;;;;;;;;;;5072556;28;20411;-63
2021/08/22 03:56:39;;;;;;;2.00;1.58;;;;;;;;;;5072476;28;20020;-63
2021/08/22 03:59:09;;;;;;;2.33;1.60;;;;;;;;;;5072307;28;20044;-65
2021/08/22 04:01:36;;;;;;;2.47;1.55;;;;;;;;;;5072561;28;20013;-64
2021/08/22 04:04:04;;;;;;;7.03;1.42;;;;;;;;;;5072439;28;20029;-64
2021/08/22 04:06:30;;;;;;;4.43;1.30;;;;;;;;;;5075591;28;20536;-64
2021/08/22 04:09:00;;;;;;;5.55;1.40;;;;;;;;;;5075483;28;20031;-64
2021/08/22 04:11:26;;;;;;;6.45;2.90;;;;;;;;;;5057491;28;20384;-64
2021/08/22 04:13:52;;;;;;;19.95;1.98;;;;;;;;;;5075381;28;20676;-64
2021/08/22 04:16:18;;;;;;;16.20;1.50;;;;;;;;;;5075122;28;20125;-64
2021/08/22 04:18:44;;;;;;;21.30;1.85;;;;;;;;;;5075246;28;20078;-64
2021/08/22 04:21:10;;;;;;;10.65;1.67;;;;;;;;;;5075290;28;20454;-64
2021/08/22 04:23:37;;;;;;;7.90;1.90;;;;;;;;;;5075013;28;20043;-64
2021/08/22 04:26:03;;;;;;;5.15;1.60;;;;;;;;;;5075078;28;20024;-64
2021/08/22 04:28:29;;;;;;;10.00;1.60;;;;;;;;;;5075218;28;20024;-64
2021/08/22 04:30:55;;;;;;;19.10;2.05;;;;;;;;;;5075105;28;20494;-64
2021/08/22 04:33:21;;;;;;;7.32;1.65;;;;;;;;;;5075190;28;20108;-63
2021/08/22 04:35:47;;;;;;;11.02;1.75;;;;;;;;;;5075053;28;20376;-64
2021/08/22 04:38:13;;;;;;;13.07;1.90;;;;;;;;;;5075318;28;20066;-64
2021/08/22 04:40:39;;;;;;;13.77;2.00;;;;;;;;;;5075422;28;20060;-64
2021/08/22 04:43:05;;;;;;;10.73;1.92;;;;;;;;;;5075334;28;20024;-64
2021/08/22 04:45:31;;;;;;;9.02;1.63;;;;;;;;;;5074728;28;20020;-64
2021/08/22 04:47:57;;;;;;;8.23;2.00;;;;;;;;;;5075100;28;20020;-64
2021/08/22 04:50:23;;;;;;;8.00;1.88;;;;;;;;;;5075031;28;20108;-64
2021/08/22 04:52:49;;;;;;;9.13;1.90;;;;;;;;;;5075018;28;20089;-64
2021/08/22 04:55:15;;;;;;;11.93;2.17;;;;;;;;;;5075094;28;20036;-64
2021/08/22 04:57:41;;;;;;;5.63;1.90;;;;;;;;;;5074560;28;20086;-65
2021/08/22 05:00:07;;;;;;;8.55;2.05;;;;;;;;;;5074775;28;20025;-64
2021/08/22 05:02:33;;;;;;;6.60;1.98;;;;;;;;;;5074737;28;20030;-64
2021/08/22 05:04:59;;;;;;;8.35;2.00;;;;;;;;;;5075038;28;20025;-64
2021/08/22 05:07:25;;;;;;;7.80;2.05;;;;;;;;;;5056930;28;20032;-64
2021/08/22 05:09:52;;;;;;;10.43;1.98;;;;;;;;;;5056522;28;20024;-64
2021/08/22 05:12:18;;;;;;;8.52;2.03;;;;;;;;;;5074405;28;20031;-64
2021/08/22 05:14:44;;;;;;;10.65;2.13;;;;;;;;;;5074425;28;20029;-64
2021/08/22 05:17:11;;;;;;;10.52;2.28;;;;;;;;;;5073634;28;20053;-63
2021/08/22 05:19:37;;;;;;;14.13;1.88;;;;;;;;;;5056466;28;20120;-64
2021/08/22 05:22:03;;;;;;;12.13;1.95;;;;;;;;;;5074096;28;20052;-64
2021/08/22 05:24:29;;;;;;;12.32;2.13;;;;;;;;;;5073883;28;20028;-64
2021/08/22 05:26:55;;;;;;;14.55;2.47;;;;;;;;;;5074258;28;20029;-64
2021/08/22 05:29:22;;;;;;;27.30;2.08;;;;;;;;;;5074065;28;20099;-64
2021/08/22 05:31:48;;;;;;;20.55;2.05;;;;;;;;;;5073766;28;20020;-64
2021/08/22 05:34:14;;;;;;;18.88;2.20;;;;;;;;;;5073890;28;20480;-67
2021/08/22 05:36:40;;;;;;;16.10;2.88;;;;;;;;;;5073725;28;20472;-63
2021/08/22 05:39:06;;;;;;;19.25;4.20;;;;;;;;;;5073876;28;20074;-63
2021/08/22 05:41:33;;;;;;;20.65;4.75;;;;;;;;;;5073645;28;20040;-63
2021/08/22 05:43:59;;;;;;;16.48;4.13;;;;;;;;;;5073953;28;20020;-64
2021/08/22 05:46:25;;;;;;;16.35;3.78;;;;;;;;;;5073650;28;20024;-63
2021/08/22 05:48:51;;;;;;;18.75;3.50;;;;;;;;;;5073423;28;20020;-64
2021/08/22 05:51:17;;;;;;;25.88;3.92;;;;;;;;;;5073393;28;20760;-64
2021/08/22 05:53:44;;;;;;;24.45;3.92;;;;;;;;;;5073731;28;20024;-64
2021/08/22 05:56:10;;;;;;;11.02;3.28;;;;;;;;;;5073329;28;20028;-64
2021/08/22 05:58:36;;;;;;;13.95;3.47;;;;;;;;;;5073490;28;20036;-64
2021/08/22 06:01:03;;;;;;;12.60;3.17;;;;;;;;;;5073450;28;20055;-65
2021/08/22 06:03:28;;;;;;;24.40;3.65;;;;;;;;;;5073531;28;20100;-64
2021/08/22 06:05:55;;;;;;;9.65;2.90;;;;;;;;;;5073709;28;20099;-65
2021/08/22 06:08:21;;;;;;;14.68;2.80;;;;;;;;;;5073264;28;20066;-64
2021/08/22 06:10:47;;;;;;;14.93;3.38;;;;;;;;;;5073192;28;20094;-64
2021/08/22 06:13:13;;;;;;;9.32;2.80;;;;;;;;;;5055091;28;20024;-64
2021/08/22 06:15:39;;;;;;;15.82;2.88;;;;;;;;;;5072820;28;20079;-65
2021/08/22 06:18:05;;;;;;;18.63;3.13;;;;;;;;;;5055157;28;20075;-64
2021/08/22 06:20:31;;;;;;;27.75;2.60;;;;;;;;;;5055084;28;20025;-63
2021/08/22 06:22:57;;;;;;;31.20;3.53;;;;;;;;;;5073058;28;20028;-64
2021/08/22 06:25:23;;;;;;;29.50;2.92;;;;;;;;;;5073429;28;20025;-64
2021/08/22 06:27:49;;;;;;;19.55;2.92;;;;;;;;;;5073306;28;20479;-64
2021/08/22 06:30:16;;;;;;;9.18;2.88;;;;;;;;;;5073415;28;20074;-64
2021/08/22 06:32:41;;;;;;;13.88;2.40;;;;;;;;;;5072040;28;20021;-65
2021/08/22 06:35:08;;;;;;;14.30;2.58;;;;;;;;;;5071927;28;20775;-64
2021/08/22 06:37:34;;;;;;;7.72;2.55;;;;;;;;;;5071749;28;20380;-64
2021/08/22 06:40:01;;;;;;;11.18;2.78;;;;;;;;;;5071717;28;20040;-64
2021/08/22 06:42:27;;;;;;;14.88;2.60;;;;;;;;;;5071586;28;20016;-64
2021/08/22 06:44:53;;;;;;;23.88;3.30;;;;;;;;;;5072215;28;20028;-64
2021/08/22 06:47:19;;;;;;;9.02;2.65;;;;;;;;;;5071664;28;20464;-66
2021/08/22 06:49:45;;;;;;;20.70;2.95;;;;;;;;;;5071445;28;20067;-67
2021/08/22 06:52:12;;;;;;;24.95;3.05;;;;;;;;;;5071672;28;20020;-64
2021/08/22 06:54:41;;;;;;;20.00;2.90;;;;;;;;;;5071844;28;20020;-66
2021/08/22 06:57:08;;;;;;;17.65;3.67;;;;;;;;;;5053518;28;20475;-65
2021/08/22 06:59:34;;;;;;;20.90;5.28;;;;;;;;;;5071853;28;20117;-65
2021/08/22 07:02:00;;;;;;;15.30;5.05;;;;;;;;;;5071599;28;20095;-67
2021/08/22 07:04:26;;;;;;;10.10;5.10;;;;;;;;;;5076541;28;20032;-66
2021/08/22 07:06:52;;;;;;;8.48;4.88;;;;;;;;;;5091975;28;20032;-65
2021/08/22 07:09:17;;;;;;;11.77;5.15;;;;;;;;;;5068428;28;20020;-66
2021/08/22 07:11:44;;;;;;;15.18;5.20;;;;;;;;;;5077217;28;20103;-67
2021/08/22 07:14:10;;;;;;;13.18;4.90;;;;;;;;;;5074677;28;20475;-69
2021/08/22 07:16:38;;;;;;;26.13;5.15;;;;;;;;;;5055306;28;20076;-70
2021/08/22 07:19:04;;;;;;;7.97;5.05;;;;;;;;;;5041504;28;20042;-69
2021/08/22 07:21:30;;;;;;;8.80;4.90;;;;;;;;;;5038970;28;20040;-69
2021/08/22 07:23:57;;;;;;;16.67;4.60;;;;;;;;;;5042719;28;20056;-71
2021/08/22 07:26:23;;;;;;;7.07;5.13;;;;;;;;;;5024344;28;20508;-69
2021/08/22 07:28:49;;;;;;;12.63;5.07;;;;;;;;;;5043470;28;20037;-70
2021/08/22 07:31:15;;;;;;;8.13;5.00;;;;;;;;;;5048171;28;20480;-67
2021/08/22 07:33:42;;;;;;;7.75;4.15;;;;;;;;;;5050455;28;20105;-68
2021/08/22 07:36:08;;;;;;;18.40;4.50;;;;;;;;;;5028822;28;20037;-68
2021/08/22 07:38:34;;;;;;;16.20;4.30;;;;;;;;;;5040365;28;20099;-67
2021/08/22 07:41:00;;;;;;;16.83;4.15;;;;;;;;;;5051795;28;20040;-68
2021/08/22 07:43:26;;;;;;;8.60;4.40;;;;;;;;;;5054790;28;20052;-69
2021/08/22 07:45:52;;;;;;;11.30;5.28;;;;;;;;;;5049159;28;20075;-70
2021/08/22 07:48:18;;;;;;;8.27;4.93;;;;;;;;;;5037225;28;20029;-69
2021/08/22 07:50:44;;;;;;;13.43;4.50;;;;;;;;;;5055940;28;20044;-69
2021/08/22 07:53:10;;;;;;;7.18;4.65;;;;;;;;;;5055990;28;20027;-70
2021/08/22 07:55:36;;;;;;;12.52;5.05;;;;;;;;;;5055341;28;20021;-69
2021/08/22 07:58:02;;;;;;;15.10;5.57;;;;;;;;;;5044186;28;20029;-69
2021/08/22 08:00:28;;;;;;;17.30;5.80;;;;;;;;;;5042206;28;20034;-66
2021/08/22 08:02:54;;;;;;;24.35;5.75;;;;;;;;;;5037164;28;20054;-66
2021/08/22 08:05:20;;;;;;;23.48;5.57;;;;;;;;;;5058601;28;20028;-67
2021/08/22 08:07:46;;;;;;;25.02;5.07;;;;;;;;;;5047444;28;20046;-69
2021/08/22 08:10:12;;;;;;;18.92;4.53;;;;;;;;;;5066413;28;20049;-68
2021/08/22 08:12:38;;;;;;;11.88;4.20;;;;;;;;;;5058631;28;20024;-66
2021/08/22 08:15:04;;;;;;;15.13;4.35;;;;;;;;;;5048243;28;20031;-66
2021/08/22 08:17:30;;;;;;;15.10;3.90;;;;;;;;;;5052007;28;20128;-69
2021/08/22 08:19:56;;;;;;;13.45;3.47;;;;;;;;;;5048109;28;20112;-66
2021/08/22 08:22:23;;;;;;;12.38;4.47;;;;;;;;;;5025488;28;20026;-67
2021/08/22 08:24:49;;;;;;;29.67;4.47;;;;;;;;;;5028324;28;20028;-66
2021/08/22 08:27:15;;;;;;;16.50;3.80;;;;;;;;;;5046020;28;20540;-67
2021/08/22 08:29:41;;;;;;;16.27;4.05;;;;;;;;;;5061448;28;20131;-65
2021/08/22 08:32:07;;;;;;;18.85;3.97;;;;;;;;;;5075165;28;20036;-68
2021/08/22 08:34:33;;;;;;;23.35;4.20;;;;;;;;;;5056909;28;20443;-68
2021/08/22 08:36:59;;;;;;;10.05;3.47;;;;;;;;;;5056977;28;20472;-68
2021/08/22 08:39:25;;;;;;;12.35;3.55;;;;;;;;;;5074887;28;20036;-67
2021/08/22 08:41:51;;;;;;;10.43;3.38;;;;;;;;;;5075066;28;20645;-67
2021/08/22 08:44:17;;;;;;;8.85;3.33;;;;;;;;;;5075035;28;20056;-66
2021/08/22 08:46:49;;;;;;;13.68;3.80;;;;;;;;;;5066872;28;20049;-67
2021/08/22 08:49:19;;;;;;;46.05;5.93;;;;;;;;;;5054565;28;20025;-68
2021/08/22 08:51:57;;;;;;;35.97;6.05;;;;;;;;;;5051562;28;20021;-67
2021/08/22 08:54:44;;;;;;;36.53;6.50;;;;;;;;;;5044292;28;20214;-65
2021/08/22 08:57:10;;;;;;;25.33;5.22;;;;;;;;;;5035060;28;20559;-67
2021/08/22 08:59:37;;;;;;;25.75;5.60;;;;;;;;;;5016766;28;20524;-65
2021/08/22 09:02:03;;;;;;;24.27;4.80;;;;;;;;;;5016880;28;20075;-66
2021/08/22 09:04:30;;;;;;;17.95;4.28;;;;;;;;;;5033882;28;20021;-67
2021/08/22 09:07:15;;;;;;;14.45;4.53;;;;;;;;;;5042800;28;20021;-66
2021/08/22 09:09:59;;;;;;;19.48;3.72;;;;;;;;;;5053401;28;20033;-66
2021/08/22 09:12:25;;;;;;;17.67;3.92;;;;;;;;;;5041875;28;20017;-66
2021/08/22 09:15:10;;;;;;;15.23;3.60;;;;;;;;;;5042040;28;20029;-67
2021/08/22 09:17:54;;;;;;;20.35;3.60;;;;;;;;;;5030976;28;20137;-66
2021/08/22 09:20:30;;;;;;;14.65;3.90;;;;;;;;;;5042621;28;20518;-69
2021/08/22 09:23:11;;;;;;;12.93;3.78;;;;;;;;;;5054081;28;20028;-68
2021/08/22 09:25:56;;;;;;;10.40;3.50;;;;;;;;;;5052520;28;20021;-66
2021/08/22 09:28:22;;;;;;;9.60;3.30;;;;;;;;;;5065806;28;20033;-68
2021/08/22 09:30:51;;;;;;;16.70;3.42;;;;;;;;;;5052488;28;20480;-67
2021/08/22 09:33:36;;;;;;;10.32;3.50;;;;;;;;;;5069720;28;20048;-68
2021/08/22 09:36:20;;;;;;;24.98;3.83;;;;;;;;;;5054075;28;20522;-67
2021/08/22 09:39:05;;;;;;;13.55;2.95;;;;;;;;;;5033478;28;20104;-68
2021/08/22 09:41:50;;;;;;;35.03;4.30;;;;;;;;;;5033932;28;20105;-68
2021/08/22 09:44:34;;;;;;;8.63;4.43;;;;;;;;;;5034169;28;20033;-67
2021/08/22 09:47:12;;;;;;;11.15;3.97;;;;;;;;;;5033859;28;20339;-66
2021/08/22 09:50:00;;;;;;;19.67;4.13;;;;;;;;;;5048498;28;20017;-65
2021/08/22 09:52:45;;;;;;;9.52;4.57;;;;;;;;;;5053772;28;20480;-65
2021/08/22 09:55:30;;;;;;;15.60;4.10;;;;;;;;;;5053882;28;20083;-65
2021/08/22 09:57:56;;;;;;;27.52;4.40;;;;;;;;;;5053562;28;20087;-65
2021/08/22 10:00:40;;;;;;;8.75;3.70;;;;;;;;;;5053558;28;20021;-65
2021/08/22 10:03:06;;;;;;;7.38;4.10;;;;;;;;;;5053192;28;20025;-65
2021/08/22 10:05:32;;;;;;;7.13;3.50;;;;;;;;;;5035478;28;20021;-66
2021/08/22 10:08:19;;;;;;;11.23;3.72;;;;;;;;;;5035490;28;20016;-65
2021/08/22 10:10:48;;;;;;;9.75;3.42;;;;;;;;;;5052951;28;20473;-65
2021/08/22 10:13:14;;;;;;;7.15;3.08;;;;;;;;;;5053054;28;20033;-65
2021/08/22 10:15:43;;;;;;;8.02;3.70;;;;;;;;;;5055026;28;20154;-65
2021/08/22 10:18:10;;;;;;;6.90;3.30;;;;;;;;;;5072972;28;20099;-65
2021/08/22 10:20:41;;;;;;;5.93;3.35;;;;;;;;;;5073187;28;20033;-64
2021/08/22 10:23:27;;;;;;;9.25;3.42;;;;;;;;;;5073089;28;20114;-64
2021/08/22 10:25:55;;;;;;;4.90;3.13;;;;;;;;;;5072899;28;20020;-63
2021/08/22 10:28:40;;;;;;;6.55;3.00;;;;;;;;;;5072664;28;20050;-63
2021/08/22 10:31:06;;;;;;;5.35;2.90;;;;;;;;;;5072064;28;20028;-64
2021/08/22 10:33:31;;;;;;;6.05;3.03;;;;;;;;;;5072863;28;20388;-64
2021/08/22 10:36:16;;;;;;;3.90;2.67;;;;;;;;;;5072872;28;20034;-65
2021/08/22 10:38:42;;;;;;;6.80;3.00;;;;;;;;;;5072916;28;20025;-65
2021/08/22 10:41:28;;;;;;;7.18;3.10;;;;;;;;;;5055052;28;20024;-64
2021/08/22 10:43:54;;;;;;;6.50;2.95;;;;;;;;;;5072706;28;20024;-63
2021/08/22 10:46:40;;;;;;;9.43;3.22;;;;;;;;;;5072863;28;20039;-63
2021/08/22 10:49:07;;;;;;;9.75;2.60;;;;;;;;;;5072598;28;20043;-64
2021/08/22 10:51:33;;;;;;;7.68;2.55;;;;;;;;;;5072697;28;20023;-64
2021/08/22 10:54:15;;;;;;;11.52;3.03;;;;;;;;;;5072794;28;20104;-63
2021/08/22 10:56:41;;;;;;;6.25;2.60;;;;;;;;;;5072921;28;20090;-63
2021/08/22 10:59:10;;;;;;;5.57;2.63;;;;;;;;;;5072963;28;20040;-64
2021/08/22 11:01:40;;;;;;;7.85;2.20;;;;;;;;;;5072689;28;20021;-63
2021/08/22 11:04:12;;;;;;;4.00;2.00;;;;;;;;;;5072941;28;20059;-63
2021/08/22 11:06:52;;;;;;;5.50;2.20;;;;;;;;;;5072857;28;20017;-63
2021/08/22 11:09:33;;;;;;;7.50;2.13;;;;;;;;;;5072994;28;20025;-64
2021/08/22 11:11:58;;;;;;;8.55;2.30;;;;;;;;;;5072526;28;20506;-64
2021/08/22 11:14:24;;;;;;;26.23;2.20;;;;;;;;;;5055599;28;20029;-65
2021/08/22 11:16:50;;;;;;;12.13;2.20;;;;;;;;;;5072217;28;20404;-69
2021/08/22 11:19:16;;;;;;;49.80;3.15;;;;;;;;;;5056354;28;20072;-67
2021/08/22 11:21:44;;;;;;;24.83;1.90;;;;;;;;;;5056972;28;20025;-69
2021/08/22 11:24:11;;;;;;;24.17;2.45;;;;;;;;;;5062367;28;20029;-69
2021/08/22 11:26:37;;;;;;;13.13;1.95;;;;;;;;;;5061211;28;20040;-68
2021/08/22 11:29:03;;;;;;;10.95;2.30;;;;;;;;;;5074587;28;20356;-67
2021/08/22 11:31:31;;;;;;;13.20;2.20;;;;;;;;;;5073512;28;20036;-67
2021/08/22 11:33:57;;;;;;;10.20;2.25;;;;;;;;;;5056545;28;20025;-68
2021/08/22 11:36:28;;;;;;;16.77;2.10;;;;;;;;;;5056450;28;20025;-67
2021/08/22 11:39:10;;;;;;;11.35;2.13;;;;;;;;;;5056328;28;20113;-67
2021/08/22 11:41:36;;;;;;;;;;;;;;;;;;5072759;28;20013;-67
2021/08/22 11:44:02;;;;;;;20.77;2.40;;;;;;;;;;5076435;28;19905;-67
2021/08/22 11:46:29;;;;;;;12.48;2.05;;;;;;;;;;5075962;28;20420;-65
2021/08/22 11:48:55;;;;;;;16.00;2.38;;;;;;;;;;5061707;28;20017;-65
2021/08/22 11:51:21;;;;;;;17.77;2.05;;;;;;;;;;5067145;28;20364;-65
2021/08/22 11:53:47;;;;;;;18.60;2.13;;;;;;;;;;5064975;28;20057;-64
2021/08/22 11:56:20;;;;;;;24.17;2.15;;;;;;;;;;5055676;28;20075;-64
2021/08/22 11:58:46;;;;;;;21.17;2.20;;;;;;;;;;5046715;28;20099;-62
2021/08/22 12:01:17;;;;;;;40.53;2.63;;;;;;;;;;5043579;28;20033;-63
2021/08/22 12:03:56;;;;;;;24.13;2.40;;;;;;;;;;5025200;28;20499;-63
2021/08/22 12:06:22;;;;;;;31.73;2.70;;;;;;;;;;5048419;28;20059;-64
2021/08/22 12:08:48;;;;;;;24.95;2.55;;;;;;;;;;5045546;28;20017;-63
2021/08/22 12:11:17;;;;;;;25.33;2.45;;;;;;;;;;5043950;28;20026;-62
2021/08/22 12:13:44;;;;;;;31.80;2.58;;;;;;;;;;5045907;28;20022;-63
2021/08/22 12:16:30;;;;;;;16.20;2.38;;;;;;;;;;5027918;28;20060;-65
2021/08/22 12:19:15;;;;;;;38.63;2.55;;;;;;;;;;5051988;28;20107;-64
2021/08/22 12:21:41;;;;;;;15.25;2.20;;;;;;;;;;5052682;28;20044;-65
2021/08/22 12:24:18;;;;;;;15.38;2.40;;;;;;;;;;5053913;28;20072;-64
2021/08/22 12:26:51;;;;;;;7.55;1.80;;;;;;;;;;5054128;28;20104;-65
2021/08/22 12:29:18;;;;;;;8.20;1.80;;;;;;;;;;5052096;28;20033;-64
2021/08/22 12:31:44;;;;;;;7.13;1.50;;;;;;;;;;5054325;28;20017;-64
2021/08/22 12:34:11;;;;;;;7.75;1.67;;;;;;;;;;5053930;28;20032;-64
2021/08/22 12:36:38;;;;;;;6.60;1.92;;;;;;;;;;5053827;28;20017;-62
2021/08/22 12:39:05;;;;;;;6.35;2.17;;;;;;;;;;5035826;28;20040;-62
2021/08/22 12:41:37;;;;;;;7.30;2.80;;;;;;;;;;5053563;28;20032;-63
2021/08/22 12:44:10;;;;;;;8.95;3.22;;;;;;;;;;5053560;28;20043;-63
2021/08/22 12:46:37;;;;;;;10.82;2.92;;;;;;;;;;5051133;28;20025;-64
2021/08/22 12:49:04;;;;;;;4.15;2.30;;;;;;;;;;5054037;28;20427;-64
2021/08/22 12:51:31;;;;;;;10.07;3.20;;;;;;;;;;5054132;28;20027;-64
2021/08/22 12:53:57;;;;;;;11.82;4.15;;;;;;;;;;5053646;28;20025;-64
2021/08/22 12:56:24;;;;;;;9.70;3.45;;;;;;;;;;5053554;28;20362;-64
2021/08/22 12:58:51;;;;;;;7.43;2.97;;;;;;;;;;5053420;28;20025;-64
2021/08/22 13:01:17;;;;;;;12.07;2.60;;;;;;;;;;5053328;28;20033;-64
2021/08/22 13:03:43;;;;;;;13.70;2.85;;;;;;;;;;5053105;28;20025;-66
2021/08/22 13:06:09;;;;;;;6.43;2.53;;;;;;;;;;5053022;28;20025;-63
2021/08/22 13:08:35;;;;;;;5.82;2.05;;;;;;;;;;5052979;28;20059;-65
2021/08/22 13:11:01;;;;;;;10.02;2.70;;;;;;;;;;5053159;28;20537;-65
2021/08/22 13:13:29;;;;;;;8.23;2.45;;;;;;;;;;5052898;28;20029;-64
2021/08/22 13:15:55;;;;;;;10.00;2.70;;;;;;;;;;5057537;28;20529;-64
2021/08/22 13:18:21;;;;;;;6.93;2.75;;;;;;;;;;5080947;28;20036;-64
2021/08/22 13:20:47;;;;;;;8.10;2.65;;;;;;;;;;5091844;28;20602;-64
2021/08/22 13:23:13;;;;;;;11.50;2.50;;;;;;;;;;5093059;28;20028;-65
2021/08/22 13:25:39;;;;;;;7.80;2.20;;;;;;;;;;5075384;28;20498;-63
2021/08/22 13:28:05;;;;;;;9.95;2.88;;;;;;;;;;5075913;28;20028;-63
2021/08/22 13:30:31;;;;;;;6.25;2.60;;;;;;;;;;5082784;28;20484;-61
2021/08/22 13:32:57;;;;;;;9.82;2.70;;;;;;;;;;5076470;28;20527;-61
2021/08/22 13:35:23;;;;;;;8.32;2.00;;;;;;;;;;5072954;28;20040;-62
2021/08/22 13:37:49;;;;;;;4.90;2.20;;;;;;;;;;5078115;28;20099;-62
2021/08/22 13:40:15;;;;;;;4.32;2.05;;;;;;;;;;5074737;28;20032;-62
2021/08/22 13:42:41;;;;;;;4.97;2.00;;;;;;;;;;5073487;28;20016;-62
2021/08/22 13:45:07;;;;;;;7.57;1.90;;;;;;;;;;5073868;28;20793;-62
2021/08/22 13:47:34;;;;;;;7.28;1.95;;;;;;;;;;5055222;28;20036;-61
2021/08/22 13:50:00;;;;;;;5.18;2.00;;;;;;;;;;5073347;28;20020;-62
2021/08/22 13:52:28;;;;;;;3.83;2.08;;;;;;;;;;5073300;28;20348;-61
2021/08/22 13:54:54;;;;;;;7.88;2.22;;;;;;;;;;5073434;28;20012;-60
2021/08/22 13:57:20;;;;;;;6.03;1.63;;;;;;;;;;5054546;28;20512;-63
2021/08/22 13:59:46;;;;;;;8.15;1.60;;;;;;;;;;5072821;28;20040;-63
2021/08/22 14:02:12;;;;;;;7.95;1.60;;;;;;;;;;5072190;28;20023;-63
2021/08/22 14:04:38;;;;;;;7.93;1.30;;;;;;;;;;5054275;28;20028;-69
2021/08/22 14:07:04;;;;;;;15.02;1.40;;;;;;;;;;5071941;28;20048;-66
2021/08/22 14:09:30;;;;;;;4.38;1.40;;;;;;;;;;5071965;28;20040;-67
2021/08/22 14:11:56;;;;;;;3.90;1.35;;;;;;;;;;5072209;28;20089;-65
2021/08/22 14:14:27;;;;;;;2.60;1.27;;;;;;;;;;5077722;28;20068;-66
2021/08/22 14:16:53;;;;;;;7.45;1.40;;;;;;;;;;5078302;28;20494;-66
2021/08/22 14:19:19;;;;;;;3.63;1.17;;;;;;;;;;5072225;28;20119;-67
2021/08/22 14:21:45;;;;;;;7.68;1.27;;;;;;;;;;5057733;28;20101;-66
2021/08/22 14:24:11;;;;;;;2.80;1.20;;;;;;;;;;5082646;28;20026;-67
2021/08/22 14:26:37;;;;;;;7.90;1.10;;;;;;;;;;5062672;28;20035;-67
2021/08/22 14:29:04;;;;;;;5.90;1.10;;;;;;;;;;5060035;28;20020;-67
2021/08/22 14:31:31;;;;;;;4.68;1.17;;;;;;;;;;5080060;28;20052;-67
2021/08/22 14:33:57;;;;;;;1.48;1.00;;;;;;;;;;5072900;28;20056;-68
2021/08/22 14:36:23;;;;;;;3.50;1.30;;;;;;;;;;5073082;28;20033;-68
2021/08/22 14:38:49;;;;;;;7.95;1.20;;;;;;;;;;5073060;28;20040;-67
2021/08/22 14:41:15;;;;;;;4.78;1.38;;;;;;;;;;5072910;28;20035;-67
2021/08/22 14:43:41;;;;;;;5.15;1.20;;;;;;;;;;5072822;28;20372;-68